الصفحة الرئيسية
METAR-TAF:

METAR-TAF

مطار :

مطار نواكشوط الدولي

نواكشوط, موريتانيا

دائرة عرض: 18-18-36N, خط طول: 015-58-11W, ارتفاع: 3 متر

مراقبة الطقس الحالي

تاريخ ووقت الإصدار 38 دقيقة قبل الساعة 15:00UTC
ريح 9 عقدة من الغرب/الشمال الغربي
درجة الحرارة 26°درجة مئوية
الرطوبة 42%
ضغط 1012 hPa
الرؤية 10 كم أو أكثر
الغيوم لا تقل 1500 م ولا وجود لمزنة ركامية السحاب الأسود

METAR: GQNO 161500Z 30009KT CAVOK 26/12 Q1012 NOSIG

زمن: 15:38 (15:38 UTC)

توقعات

تاريخ ووقت الإصدار 4ساعات و 38 دقيقة قبل الساعة 11:00UTC
التوقعات صالحة من16 الساعة 12 UTC إلى 17 الساعة 18 UTC
ريح 12 عقدة من الشمال
الرؤية: 6000 متر
نظرية الاحتمالات 30% :
مؤقت
من 17 الساعة 02 UTC إلى 17 الساعة 08 UTC
غيوم مفككة على ارتفاع 500 قدم

TAF: GQNO 161100Z 1612/1718 36012KT 6000 NSC PROB30 TEMPO 1702/1708 BKN005

أرصاد الطقس والتوقعات من أكثر من 4000 مطار (تقارير الطقس للمطار METAR والتنبؤ بالطقس بالمطارTAF).

المحطات المتاحة هي النقط الصفراء والحمراء على الخريطة.

حرك المؤشر فوق النقطة لمعرفة اسم المحطة.

ثم انقر لمعرفة أرصاد وتوقعات الطقس.

لتغيير الخارطة: اضغط على الأزرار الخضراء مع رمز الصليب الأسود للتكبير. على الزر الأخضر مع شرطة للتصغير، أو على الأسهم الخضراء للخرائط المجاورة.


METAR-TAF: